Terminal Aerodrome Forecast
Issued by NWS Medford, OR

Home | Current Version | Previous Version | Text Only | Print | Product List | Glossary On
Versions: 1 2 3 4 5 6 7 8 9 10 11 12 13 14 15 16 17 18 19 20 21 22 23 24 25
000
FTUS46 KMFR 272345
TAFMFR
TAF
KMFR 272345Z 2800/2824 32003KT P6SM VCSH SCT040 OVC060
     FM280300 VRB03KT P6SM -SHRA SCT015 BKN040 OVC060
     FM280600 VRB03KT P6SM -RA BKN015 OVC030
     FM281800 VRB03KT P6SM VCSH SCT025 BKN035=

USA.gov is the U.S. government's official web portal to all federal, state and local government web resources and services.